Weather at Stavanger Airport, Sola

Public forecast

Using degrees Celsius for public forecast. Weather courtesy of forecast.io.

Current aviation weather report (METAR) for Stavanger Airport, Sola

Retrieved 2022/06/27 23:20 UTC (38 minutes ago):

ENZV 272320Z 14007KT CAVOK 13/12 Q1016

Aviation forecast (TAF) for Stavanger Airport, Sola

Retrieved 2022/06/27 18:57 UTC (5 hours ago):

TAF ENZV 271700Z 2718/2818 16010KT CAVOK PROB30 2722/2805 BKN006